Time;durP1;ratioP1;P1;durP2;ratioP2;P2;SDS_P1;SDS_P2;PMS_P1;PMS_P2;Temp;Humidity;BMP_temperature;BMP_pressure;BME280_temperature;BME280_humidity;BME280_pressure;Samples;Min_cycle;Max_cycle;Signal;HPM_P1;HPM_P2
2023/09/06 00:00:45;;;;;;;3.65;1.50;;;21.10;99.90;;;;;;5086923;28;20474;-82
2023/09/06 00:03:11;;;;;;;2.08;1.48;;;21.00;99.90;;;;;;5068002;28;20028;-83
2023/09/06 00:05:41;;;;;;;3.38;1.77;;;21.00;99.90;;;;;;5068765;28;20057;-83
2023/09/06 00:08:16;;;;;;;3.05;1.52;;;21.00;99.90;;;;;;5070288;28;20035;-83
2023/09/06 00:10:43;;;;;;;4.47;1.70;;;21.00;99.90;;;;;;5066974;28;20035;-84
2023/09/06 00:13:10;;;;;;;7.72;2.08;;;20.90;99.90;;;;;;5070056;28;20062;-84
2023/09/06 00:15:36;;;;;;;3.28;2.13;;;20.80;99.90;;;;;;5068574;28;20036;-85
2023/09/06 00:18:05;;;;;;;2.80;1.90;;;20.80;99.90;;;;;;5068878;28;20077;-83
2023/09/06 00:20:34;;;;;;;2.55;1.58;;;20.80;99.90;;;;;;5087859;28;20028;-82
2023/09/06 00:23:02;;;;;;;4.80;1.98;;;20.70;99.90;;;;;;5065756;28;20024;-83
2023/09/06 00:25:31;;;;;;;5.82;1.75;;;20.70;99.90;;;;;;5069008;28;20024;-83
2023/09/06 00:28:00;;;;;;;4.22;1.63;;;20.70;99.90;;;;;;5087316;28;20051;-84
2023/09/06 00:30:28;;;;;;;2.67;1.73;;;20.70;99.90;;;;;;5085902;28;20522;-83
2023/09/06 00:32:54;;;;;;;3.03;1.67;;;20.70;99.90;;;;;;5067428;28;20028;-84
2023/09/06 00:35:22;;;;;;;2.63;1.83;;;20.60;99.90;;;;;;5087556;28;20453;-84
2023/09/06 00:37:47;;;;;;;3.08;1.63;;;20.50;99.90;;;;;;5086624;28;20058;-82
2023/09/06 00:40:22;;;;;;;5.57;1.88;;;20.50;99.90;;;;;;5062839;28;20056;-83
2023/09/06 00:43:02;;;;;;;5.40;1.90;;;20.40;99.90;;;;;;5068261;28;20020;-83
2023/09/06 00:45:29;;;;;;;2.58;1.55;;;20.40;99.90;;;;;;5065759;28;20691;-83
2023/09/06 00:47:58;;;;;;;4.93;1.80;;;20.30;99.90;;;;;;5090987;28;20017;-84
2023/09/06 00:50:27;;;;;;;3.55;1.60;;;20.40;99.90;;;;;;5087529;28;20099;-82
2023/09/06 00:52:54;;;;;;;6.53;1.88;;;20.30;99.90;;;;;;5072029;28;20034;-84
2023/09/06 00:55:25;;;;;;;8.73;2.03;;;20.30;99.90;;;;;;5070050;28;20032;-85
2023/09/06 00:57:53;;;;;;;4.45;1.70;;;20.30;99.90;;;;;;5068034;28;20036;-84
2023/09/06 01:00:20;;;;;;;4.57;1.77;;;20.20;99.90;;;;;;5069109;28;20032;-83
2023/09/06 01:02:49;;;;;;;6.03;1.88;;;20.20;99.90;;;;;;5088039;28;20433;-82
2023/09/06 01:05:16;;;;;;;10.05;2.10;;;20.20;99.90;;;;;;5068880;28;20033;-85
2023/09/06 01:07:55;;;;;;;3.38;1.50;;;20.10;99.90;;;;;;5068495;28;20031;-85
2023/09/06 01:10:21;;;;;;;2.75;1.98;;;20.10;99.90;;;;;;5087456;28;20032;-85
2023/09/06 01:12:49;;;;;;;4.65;1.63;;;20.00;99.90;;;;;;5087109;28;20035;-81
2023/09/06 01:15:14;;;;;;;5.03;1.77;;;20.00;99.90;;;;;;5069102;28;20027;-84
2023/09/06 01:17:43;;;;;;;3.15;1.92;;;19.90;99.90;;;;;;5069909;28;20020;-80
2023/09/06 01:20:36;;;;;;;2.10;1.67;;;19.90;99.90;;;;;;5071662;28;20069;-84
2023/09/06 01:23:27;;;;;;;3.67;1.85;;;19.80;99.90;;;;;;5077906;28;20078;-82
2023/09/06 01:25:55;;;;;;;3.63;1.80;;;19.70;99.90;;;;;;5089252;28;20095;-82
2023/09/06 01:28:27;;;;;;;3.00;1.83;;;19.70;99.90;;;;;;5091789;28;20024;-83
2023/09/06 01:30:56;;;;;;;4.30;2.20;;;19.60;99.90;;;;;;5090892;28;20452;-84
2023/09/06 01:33:22;;;;;;;6.25;1.85;;;19.60;99.90;;;;;;5074789;28;20050;-83
2023/09/06 01:35:51;;;;;;;3.25;1.88;;;19.60;99.90;;;;;;5076147;28;20046;-85
2023/09/06 01:38:17;;;;;;;4.57;1.75;;;19.50;99.90;;;;;;5078688;28;20051;-83
2023/09/06 01:40:43;;;;;;;3.63;1.88;;;19.50;99.90;;;;;;5092678;28;20085;-84
2023/09/06 01:43:12;;;;;;;2.47;1.70;;;19.40;99.90;;;;;;5072678;28;20024;-86
2023/09/06 01:45:47;;;;;;;2.17;1.50;;;19.40;99.90;;;;;;5072645;28;20024;-83
2023/09/06 01:48:13;;;;;;;7.53;2.22;;;19.30;99.90;;;;;;5072942;28;20052;-86
2023/09/06 01:50:39;;;;;;;2.83;1.52;;;19.30;99.90;;;;;;5072301;28;20186;-82
2023/09/06 01:53:05;;;;;;;3.65;1.83;;;19.20;99.90;;;;;;5069257;28;20475;-86
2023/09/06 01:55:30;;;;;;;2.15;1.48;;;19.20;99.90;;;;;;5098833;28;20443;-84
2023/09/06 01:57:56;;;;;;;3.58;2.25;;;19.10;99.90;;;;;;5083387;28;20032;-80
2023/09/06 02:00:27;;;;;;;2.53;1.77;;;19.10;99.90;;;;;;5080873;28;20071;-80
2023/09/06 02:02:55;;;;;;;2.70;1.63;;;19.10;99.90;;;;;;5095472;28;20953;-81
2023/09/06 02:05:20;;;;;;;6.20;2.25;;;19.00;99.90;;;;;;5069984;28;20187;-83
2023/09/06 02:07:49;;;;;;;2.88;1.80;;;18.90;99.90;;;;;;5072116;28;20107;-83
2023/09/06 02:10:15;;;;;;;4.43;1.83;;;18.90;99.90;;;;;;5068284;28;20032;-79
2023/09/06 02:12:40;;;;;;;3.38;1.88;;;18.90;99.90;;;;;;5090672;28;20043;-85
2023/09/06 02:15:08;;;;;;;4.75;2.13;;;18.90;99.90;;;;;;5074786;28;20126;-82
2023/09/06 02:17:36;;;;;;;5.40;1.90;;;18.90;99.90;;;;;;5077820;28;20036;-81
2023/09/06 02:20:19;;;;;;;3.33;2.17;;;18.80;99.90;;;;;;5074240;28;20046;-83
2023/09/06 02:22:46;;;;;;;3.65;1.73;;;18.80;99.90;;;;;;5076993;28;20040;-82
2023/09/06 02:25:16;;;;;;;3.05;2.00;;;18.70;99.90;;;;;;5069242;28;20028;-81
2023/09/06 02:27:44;;;;;;;2.63;2.10;;;18.70;99.90;;;;;;5072056;28;20047;-81
2023/09/06 02:30:10;;;;;;;5.47;1.85;;;18.70;99.90;;;;;;5089083;28;20043;-82
2023/09/06 02:32:38;;;;;;;4.80;2.13;;;18.70;99.90;;;;;;5072052;28;20032;-82
2023/09/06 02:35:06;;;;;;;3.47;2.08;;;18.70;99.90;;;;;;5070962;28;20036;-84
2023/09/06 02:37:35;;;;;;;2.78;2.10;;;18.60;99.90;;;;;;5093496;28;20063;-78
2023/09/06 02:40:06;;;;;;;10.40;2.55;;;18.60;99.90;;;;;;5097275;28;20028;-82
2023/09/06 02:42:32;;;;;;;4.25;2.38;;;18.60;99.90;;;;;;5075716;28;20373;-82
2023/09/06 02:44:57;;;;;;;4.13;2.42;;;18.60;99.90;;;;;;5066207;28;20031;-84
2023/09/06 02:47:25;;;;;;;5.15;1.80;;;18.60;99.90;;;;;;5073096;28;20067;-81
2023/09/06 02:49:55;;;;;;;5.38;2.08;;;18.60;99.90;;;;;;5070201;28;20038;-81
2023/09/06 02:52:30;;;;;;;2.63;1.80;;;18.60;99.90;;;;;;5071744;28;20089;-81
2023/09/06 02:55:03;;;;;;;5.43;1.98;;;18.50;99.90;;;;;;5072090;28;20042;-82
2023/09/06 02:57:30;;;;;;;2.53;2.00;;;18.40;99.90;;;;;;5092902;28;20047;-81
2023/09/06 02:59:55;;;;;;;5.25;2.25;;;18.40;99.90;;;;;;5077310;28;20066;-82
2023/09/06 03:02:21;;;;;;;3.25;2.17;;;18.40;99.90;;;;;;5093662;28;20032;-78
2023/09/06 03:04:49;;;;;;;5.47;2.10;;;18.30;99.90;;;;;;5091696;28;20480;-81
2023/09/06 03:07:15;;;;;;;5.47;2.33;;;18.30;99.90;;;;;;5074282;28;20427;-80
2023/09/06 03:09:42;;;;;;;4.05;2.42;;;18.30;99.90;;;;;;5078489;28;20028;-81
2023/09/06 03:12:16;;;;;;;5.68;1.95;;;18.30;99.90;;;;;;5080207;28;20055;-80
2023/09/06 03:14:44;;;;;;;5.07;2.47;;;18.20;99.90;;;;;;5081584;28;20109;-81
2023/09/06 03:17:11;;;;;;;3.70;2.50;;;18.20;99.90;;;;;;5100273;28;20056;-77
2023/09/06 03:19:45;;;;;;;4.47;2.20;;;18.20;99.90;;;;;;5080168;28;20035;-77
2023/09/06 03:22:12;;;;;;;3.20;2.15;;;18.10;99.90;;;;;;5086348;28;20060;-77
2023/09/06 03:24:41;;;;;;;8.07;2.08;;;18.10;99.90;;;;;;5083242;28;20020;-79
2023/09/06 03:27:08;;;;;;;3.55;2.10;;;18.10;99.90;;;;;;5080739;28;20039;-79
2023/09/06 03:29:38;;;;;;;5.57;2.28;;;18.00;99.90;;;;;;5086176;28;20149;-76
2023/09/06 03:32:08;;;;;;;3.08;2.35;;;18.10;99.90;;;;;;5086166;28;20028;-79
2023/09/06 03:34:37;;;;;;;6.85;2.17;;;18.00;99.90;;;;;;5091110;28;20044;-75
2023/09/06 03:37:05;;;;;;;4.65;2.28;;;18.00;99.90;;;;;;5109821;28;20087;-77
2023/09/06 03:39:37;;;;;;;4.35;2.55;;;17.90;99.90;;;;;;5092471;28;20036;-75
2023/09/06 03:42:08;;;;;;;4.20;1.90;;;17.90;99.90;;;;;;5095566;28;20038;-77
2023/09/06 03:44:42;;;;;;;2.88;2.00;;;17.90;99.90;;;;;;5095197;28;20036;-74
2023/09/06 03:47:14;;;;;;;4.03;2.72;;;17.80;99.90;;;;;;5095901;28;20024;-75
2023/09/06 03:49:43;;;;;;;4.55;2.10;;;17.80;99.90;;;;;;5113549;28;20034;-76
2023/09/06 03:52:16;;;;;;;3.47;2.50;;;17.70;99.90;;;;;;5095369;28;20012;-75
2023/09/06 03:54:42;;;;;;;2.88;1.90;;;17.70;99.90;;;;;;5114233;28;20522;-75
2023/09/06 03:57:12;;;;;;;3.90;2.85;;;17.60;99.90;;;;;;5096099;28;20032;-75
2023/09/06 03:59:41;;;;;;;4.75;2.67;;;17.60;99.90;;;;;;5092711;28;20036;-75
2023/09/06 04:02:13;;;;;;;4.18;2.53;;;17.60;99.90;;;;;;5112973;28;20012;-75
2023/09/06 04:04:39;;;;;;;;;;;17.60;99.90;;;;;;5113270;28;20008;-75
2023/09/06 04:07:07;;;;;;;4.32;2.75;;;17.60;99.90;;;;;;5095139;28;20009;-75
2023/09/06 04:09:37;;;;;;;6.22;2.67;;;17.60;99.90;;;;;;5092703;28;20013;-75
2023/09/06 04:12:05;;;;;;;2.75;2.03;;;17.60;99.90;;;;;;5094287;28;20048;-75
2023/09/06 04:14:35;;;;;;;5.03;2.58;;;17.50;99.90;;;;;;5112485;28;20089;-75
2023/09/06 04:17:06;;;;;;;4.18;2.00;;;17.50;99.90;;;;;;5094596;28;20019;-75
2023/09/06 04:19:33;;;;;;;3.65;2.35;;;17.50;99.90;;;;;;5093241;28;20036;-75
2023/09/06 04:22:01;;;;;;;4.18;2.53;;;17.50;99.90;;;;;;5112121;28;20012;-75
2023/09/06 04:24:27;;;;;;;3.60;2.40;;;17.50;99.90;;;;;;5092629;28;20032;-75
2023/09/06 04:26:55;;;;;;;5.88;2.30;;;17.50;99.90;;;;;;5094080;28;20085;-75
2023/09/06 04:29:24;;;;;;;3.70;2.60;;;17.50;99.90;;;;;;5094313;28;20028;-75
2023/09/06 04:31:49;;;;;;;4.97;2.45;;;17.50;99.90;;;;;;5093722;28;20008;-75
2023/09/06 04:34:15;;;;;;;4.70;2.20;;;17.60;99.90;;;;;;5111976;28;20044;-75
2023/09/06 04:36:43;;;;;;;3.40;2.22;;;17.60;99.90;;;;;;5093447;28;20028;-75
2023/09/06 04:39:08;;;;;;;9.85;2.28;;;17.60;99.90;;;;;;5092438;28;20020;-75
2023/09/06 04:41:38;;;;;;;2.88;1.98;;;17.50;99.90;;;;;;5093010;28;20039;-75
2023/09/06 04:44:04;;;;;;;3.42;2.25;;;17.50;99.90;;;;;;5093216;28;20032;-75
2023/09/06 04:46:30;;;;;;;6.88;2.40;;;17.40;99.90;;;;;;5093134;28;20051;-75
2023/09/06 04:48:55;;;;;;;6.50;2.20;;;17.40;99.90;;;;;;5092211;28;20015;-74
2023/09/06 04:51:21;;;;;;;4.60;2.10;;;17.40;99.90;;;;;;5092685;28;20119;-75
2023/09/06 04:53:48;;;;;;;5.85;2.55;;;17.30;99.90;;;;;;5111893;28;20024;-75
2023/09/06 04:56:13;;;;;;;7.47;2.80;;;17.30;99.90;;;;;;5093960;28;20055;-75
2023/09/06 04:58:39;;;;;;;6.38;2.45;;;17.30;99.90;;;;;;5091713;28;20035;-75
2023/09/06 05:01:06;;;;;;;5.72;2.83;;;17.30;99.90;;;;;;5092357;28;20107;-74
2023/09/06 05:03:35;;;;;;;5.88;2.70;;;17.30;99.90;;;;;;5096411;28;20027;-75
2023/09/06 05:06:04;;;;;;;3.33;2.17;;;17.30;99.90;;;;;;5097473;28;20087;-75
2023/09/06 05:08:30;;;;;;;4.15;2.53;;;17.30;99.90;;;;;;5095371;28;20020;-75
2023/09/06 05:10:56;;;;;;;7.38;2.85;;;17.30;99.90;;;;;;5096152;28;20109;-75
2023/09/06 05:13:22;;;;;;;3.65;2.65;;;17.30;99.90;;;;;;5097630;28;20104;-75
2023/09/06 05:15:48;;;;;;;4.80;2.30;;;17.20;99.90;;;;;;5096722;28;20034;-75
2023/09/06 05:18:14;;;;;;;5.43;2.40;;;17.20;99.90;;;;;;5096433;28;20052;-75
2023/09/06 05:20:42;;;;;;;2.63;2.15;;;17.20;99.90;;;;;;5095496;28;20044;-75
2023/09/06 05:23:13;;;;;;;4.47;2.10;;;17.20;99.90;;;;;;5098017;28;20031;-75
2023/09/06 05:25:42;;;;;;;8.85;2.38;;;17.20;99.90;;;;;;5095000;28;20016;-75
2023/09/06 05:28:15;;;;;;;5.68;2.88;;;17.20;99.90;;;;;;5098187;28;20016;-75
2023/09/06 05:30:46;;;;;;;7.22;2.55;;;17.20;99.90;;;;;;5096570;28;20067;-75
2023/09/06 05:33:15;;;;;;;6.65;2.78;;;17.20;99.90;;;;;;5096853;28;20039;-76
2023/09/06 05:35:44;;;;;;;6.78;2.63;;;17.20;99.90;;;;;;5115453;28;20019;-75
2023/09/06 05:38:09;;;;;;;4.80;2.45;;;17.20;99.90;;;;;;5097501;28;20092;-75
2023/09/06 05:40:35;;;;;;;6.03;2.90;;;17.20;99.90;;;;;;5115415;28;20040;-75
2023/09/06 05:43:06;;;;;;;5.70;2.97;;;17.30;99.90;;;;;;5097240;28;20307;-75
2023/09/06 05:45:34;;;;;;;7.30;2.85;;;17.30;99.90;;;;;;5113233;28;20496;-75
2023/09/06 05:48:00;;;;;;;5.68;2.80;;;17.30;99.90;;;;;;5095674;28;20008;-75
2023/09/06 05:50:28;;;;;;;6.32;2.92;;;17.40;99.90;;;;;;5098552;28;20016;-75
2023/09/06 05:52:56;;;;;;;9.48;3.10;;;17.40;99.90;;;;;;5097418;28;20012;-75
2023/09/06 05:55:24;;;;;;;6.32;3.33;;;17.40;99.90;;;;;;5097649;28;20047;-75
2023/09/06 05:57:52;;;;;;;7.22;3.78;;;17.40;99.90;;;;;;5116051;28;20041;-75
2023/09/06 06:00:21;;;;;;;13.77;4.68;;;17.40;99.90;;;;;;5113028;28;20035;-76
2023/09/06 06:02:48;;;;;;;7.10;3.78;;;17.50;99.90;;;;;;5095241;28;20024;-75
2023/09/06 06:05:18;;;;;;;4.38;2.78;;;17.50;99.90;;;;;;5095221;28;20031;-76
2023/09/06 06:07:49;;;;;;;8.23;3.67;;;17.50;99.90;;;;;;5093434;28;20016;-75
2023/09/06 06:10:14;;;;;;;7.43;3.90;;;17.60;99.90;;;;;;5089949;28;20020;-79
2023/09/06 06:12:41;;;;;;;9.07;3.40;;;17.60;99.90;;;;;;5111179;28;20036;-77
2023/09/06 06:15:13;;;;;;;7.15;3.30;;;17.60;99.90;;;;;;5086302;28;20032;-76
2023/09/06 06:17:42;;;;;;;7.25;3.20;;;17.70;99.90;;;;;;5088346;28;20448;-78
2023/09/06 06:20:10;;;;;;;8.25;3.38;;;17.70;99.90;;;;;;5095147;28;20085;-81
2023/09/06 06:22:39;;;;;;;8.68;3.30;;;17.80;99.90;;;;;;5077815;28;20447;-78
2023/09/06 06:25:10;;;;;;;5.18;2.70;;;17.90;99.90;;;;;;5072244;28;20140;-82
2023/09/06 06:27:38;;;;;;;2.88;2.17;;;18.00;99.90;;;;;;5076569;28;20021;-80
2023/09/06 06:30:06;;;;;;;6.68;3.10;;;18.00;99.90;;;;;;5090362;28;20028;-81
2023/09/06 06:32:32;;;;;;;9.40;3.38;;;18.10;99.90;;;;;;5090294;28;21841;-82
2023/09/06 06:35:01;;;;;;;5.15;2.65;;;18.10;99.90;;;;;;5071130;28;20020;-83
2023/09/06 06:37:27;;;;;;;5.57;2.60;;;18.10;99.90;;;;;;5092052;28;20097;-80
2023/09/06 06:39:58;;;;;;;5.20;2.65;;;18.20;99.90;;;;;;5092404;28;20145;-84
2023/09/06 06:42:29;;;;;;;6.00;2.17;;;18.30;99.90;;;;;;5073787;28;20035;-81
2023/09/06 06:44:57;;;;;;;3.70;2.53;;;18.30;99.90;;;;;;5076403;28;20106;-82
2023/09/06 06:47:23;;;;;;;8.10;2.67;;;18.40;99.90;;;;;;5070410;28;20020;-83
2023/09/06 06:49:54;;;;;;;6.57;2.88;;;18.40;99.90;;;;;;5069330;28;20042;-82
2023/09/06 06:52:21;;;;;;;6.22;3.08;;;18.50;99.90;;;;;;5090570;28;20047;-83
2023/09/06 06:54:47;;;;;;;9.45;3.28;;;18.50;99.90;;;;;;5073724;28;20183;-83
2023/09/06 06:57:13;;;;;;;7.55;2.63;;;18.60;99.90;;;;;;5076173;28;20052;-82
2023/09/06 06:59:38;;;;;;;4.43;2.13;;;18.60;99.90;;;;;;5089376;28;20036;-86
2023/09/06 07:02:09;;;;;;;6.45;2.92;;;18.70;99.90;;;;;;5089294;28;20133;-83
2023/09/06 07:04:34;;;;;;;6.22;2.25;;;18.80;99.90;;;;;;5090656;28;20095;-81
2023/09/06 07:07:00;;;;;;;4.95;2.65;;;18.80;99.90;;;;;;5070806;28;20150;-82
2023/09/06 07:09:25;;;;;;;5.38;2.15;;;18.80;99.90;;;;;;5070387;28;20031;-83
2023/09/06 07:11:51;;;;;;;4.93;2.30;;;18.90;99.90;;;;;;5089058;28;20086;-83
2023/09/06 07:14:16;;;;;;;7.85;1.92;;;19.00;99.90;;;;;;5089359;28;20509;-84
2023/09/06 07:16:42;;;;;;;8.32;2.60;;;19.00;99.90;;;;;;5069460;28;20032;-83
2023/09/06 07:19:10;;;;;;;4.43;2.20;;;19.00;99.90;;;;;;5069919;28;20478;-80
2023/09/06 07:21:38;;;;;;;4.05;2.33;;;19.10;99.90;;;;;;5088860;28;20020;-84
2023/09/06 07:24:09;;;;;;;7.90;3.35;;;19.10;99.90;;;;;;5069980;28;20036;-82
2023/09/06 07:26:37;;;;;;;6.22;3.20;;;19.20;99.90;;;;;;5069022;28;20055;-83
2023/09/06 07:29:03;;;;;;;3.47;2.05;;;19.20;99.90;;;;;;5071765;28;20169;-84
2023/09/06 07:31:28;;;;;;;5.78;2.63;;;19.30;99.90;;;;;;5088033;28;20118;-83
2023/09/06 07:33:54;;;;;;;5.60;2.47;;;19.40;99.90;;;;;;5068202;28;20084;-84
2023/09/06 07:36:20;;;;;;;4.40;2.30;;;19.40;99.90;;;;;;5088256;28;20032;-85
2023/09/06 07:38:45;;;;;;;7.03;2.42;;;19.40;99.90;;;;;;5073766;28;20447;-84
2023/09/06 07:41:13;;;;;;;4.25;2.58;;;19.40;99.90;;;;;;5069841;28;20110;-84
2023/09/06 07:43:39;;;;;;;6.43;2.17;;;19.50;99.90;;;;;;5073109;28;20032;-83
2023/09/06 07:46:09;;;;;;;6.85;2.15;;;19.50;99.90;;;;;;5070521;28;20151;-85
2023/09/06 07:48:36;;;;;;;3.80;2.13;;;19.50;99.90;;;;;;5065637;28;20115;-84
2023/09/06 07:51:04;;;;;;;6.25;2.15;;;19.60;99.90;;;;;;5086922;28;20035;-84
2023/09/06 07:53:32;;;;;;;4.03;2.10;;;19.70;99.90;;;;;;5068436;28;20133;-82
2023/09/06 07:56:00;;;;;;;5.38;3.17;;;19.70;99.90;;;;;;5088094;28;20054;-83
2023/09/06 07:58:25;;;;;;;6.53;2.63;;;19.80;99.90;;;;;;5070419;28;20558;-83
2023/09/06 08:00:51;;;;;;;3.70;2.20;;;19.80;99.90;;;;;;5088159;28;20132;-84
2023/09/06 08:03:21;;;;;;;3.35;1.80;;;19.90;99.90;;;;;;5068295;28;20028;-85
2023/09/06 08:05:47;;;;;;;6.07;2.20;;;19.90;99.90;;;;;;5069239;28;20020;-83
2023/09/06 08:08:12;;;;;;;7.22;2.10;;;19.90;99.90;;;;;;5069920;28;20432;-83
2023/09/06 08:10:39;;;;;;;7.32;2.60;;;20.00;99.90;;;;;;5069156;28;20060;-85
2023/09/06 08:13:05;;;;;;;4.50;2.22;;;20.20;99.90;;;;;;5068446;28;20057;-85
2023/09/06 08:15:35;;;;;;;3.13;1.90;;;20.20;99.90;;;;;;5087751;28;20046;-83
2023/09/06 08:18:03;;;;;;;5.35;2.15;;;20.30;99.90;;;;;;5068168;28;20471;-82
2023/09/06 08:20:29;;;;;;;6.53;2.10;;;20.40;99.90;;;;;;5086632;28;20028;-84
2023/09/06 08:22:54;;;;;;;4.38;2.30;;;20.50;99.90;;;;;;5086673;28;20036;-84
2023/09/06 08:25:22;;;;;;;2.38;1.65;;;20.50;99.90;;;;;;5064524;28;20551;-84
2023/09/06 08:27:51;;;;;;;5.70;2.25;;;20.60;99.90;;;;;;5068108;28;20061;-84
2023/09/06 08:30:18;;;;;;;4.97;2.22;;;20.60;99.90;;;;;;5067048;28;20118;-84
2023/09/06 08:32:46;;;;;;;6.97;2.38;;;20.60;99.90;;;;;;5069659;28;20028;-85
2023/09/06 08:35:12;;;;;;;4.00;2.10;;;20.60;99.90;;;;;;5070807;28;20027;-84
2023/09/06 08:37:38;;;;;;;7.82;2.42;;;20.70;99.90;;;;;;5090537;28;20084;-83
2023/09/06 08:40:07;;;;;;;3.38;1.73;;;20.80;99.90;;;;;;5091200;28;20020;-85
2023/09/06 08:42:34;;;;;;;6.00;2.30;;;20.90;99.90;;;;;;5072302;28;20088;-83
2023/09/06 08:45:03;;;;;;;8.20;2.60;;;21.00;99.90;;;;;;5072605;28;20460;-84
2023/09/06 08:47:29;;;;;;;7.53;2.47;;;21.00;99.90;;;;;;5072448;28;20043;-83
2023/09/06 08:49:56;;;;;;;5.10;2.28;;;21.10;99.90;;;;;;5071481;28;20032;-85
2023/09/06 08:52:22;;;;;;;4.78;2.38;;;21.20;99.90;;;;;;5071354;28;20472;-81
2023/09/06 08:54:51;;;;;;;4.32;1.92;;;21.30;99.90;;;;;;5073875;28;20012;-84
2023/09/06 08:57:17;;;;;;;4.32;2.60;;;21.30;99.90;;;;;;5071396;28;20071;-84
2023/09/06 08:59:44;;;;;;;3.90;2.42;;;21.30;99.90;;;;;;5071466;28;20864;-84
2023/09/06 09:02:12;;;;;;;2.85;2.03;;;21.30;99.90;;;;;;5071766;28;20031;-84
2023/09/06 09:04:42;;;;;;;4.15;2.53;;;21.30;99.90;;;;;;5071448;28;20031;-83
2023/09/06 09:07:13;;;;;;;4.47;2.20;;;21.40;99.90;;;;;;5091202;28;20045;-84
2023/09/06 09:09:59;;;;;;;3.95;2.40;;;21.40;99.90;;;;;;5071663;28;20032;-84
2023/09/06 09:12:29;;;;;;;5.70;2.85;;;21.50;99.90;;;;;;5068734;28;20123;-82
2023/09/06 09:14:57;;;;;;;5.05;2.47;;;21.50;99.90;;;;;;5071621;28;20149;-82
2023/09/06 09:17:25;;;;;;;4.00;2.22;;;21.50;99.90;;;;;;5072689;28;20032;-84
2023/09/06 09:19:57;;;;;;;4.53;2.38;;;21.60;99.90;;;;;;5089854;28;20024;-84
2023/09/06 09:22:38;;;;;;;4.57;2.88;;;21.70;99.90;;;;;;5066572;28;20027;-83
2023/09/06 09:25:17;;;;;;;3.90;2.35;;;21.70;99.90;;;;;;5070744;28;20028;-84
2023/09/06 09:27:50;;;;;;;5.05;2.40;;;21.80;99.90;;;;;;5066618;28;20452;-82
2023/09/06 09:30:18;;;;;;;6.00;2.63;;;21.90;99.90;;;;;;5072211;28;20119;-83
2023/09/06 09:32:43;;;;;;;4.50;2.67;;;22.00;99.90;;;;;;5070847;28;20579;-83
2023/09/06 09:35:12;;;;;;;5.47;2.20;;;22.10;99.90;;;;;;5069515;28;20151;-84
2023/09/06 09:37:50;;;;;;;5.13;2.72;;;22.10;99.90;;;;;;5071857;28;20043;-80
2023/09/06 09:40:20;;;;;;;3.67;2.13;;;22.20;99.90;;;;;;5071476;28;20032;-84
2023/09/06 09:42:56;;;;;;;5.57;2.30;;;22.30;99.90;;;;;;5070550;28;20032;-84
2023/09/06 09:45:28;;;;;;;6.63;2.03;;;22.30;99.90;;;;;;5089240;28;20889;-82
2023/09/06 09:47:55;;;;;;;3.50;2.53;;;22.30;99.90;;;;;;5069549;28;20118;-83
2023/09/06 09:50:29;;;;;;;2.83;2.10;;;22.30;99.90;;;;;;5072247;28;20032;-83
2023/09/06 09:52:56;;;;;;;6.47;2.80;;;22.40;99.90;;;;;;5073944;28;21702;-84
2023/09/06 09:55:31;;;;;;;4.30;2.58;;;22.40;99.90;;;;;;5088957;28;20040;-84
2023/09/06 09:58:00;;;;;;;4.03;2.20;;;22.40;99.90;;;;;;5092340;28;20490;-84
2023/09/06 10:00:29;;;;;;;5.88;2.33;;;22.40;99.90;;;;;;5070815;28;20061;-82
2023/09/06 10:03:00;;;;;;;4.25;2.45;;;22.50;99.90;;;;;;5069763;28;20149;-82
2023/09/06 10:05:29;;;;;;;3.65;2.55;;;22.50;99.90;;;;;;5065390;28;20411;-84
2023/09/06 10:07:56;;;;;;;7.80;2.75;;;22.60;99.90;;;;;;5091757;28;20070;-83
2023/09/06 10:10:24;;;;;;;4.18;2.40;;;22.60;99.90;;;;;;5070582;28;20548;-84
2023/09/06 10:12:53;;;;;;;8.35;2.70;;;22.60;99.90;;;;;;5088417;28;20623;-84
2023/09/06 10:15:20;;;;;;;5.75;3.13;;;22.60;99.90;;;;;;5089162;28;20103;-82
2023/09/06 10:17:55;;;;;;;4.25;2.60;;;22.70;99.90;;;;;;5088787;28;20028;-79
2023/09/06 10:20:23;;;;;;;5.20;2.95;;;22.70;99.90;;;;;;5065306;28;20028;-81
2023/09/06 10:22:53;;;;;;;4.80;2.53;;;22.80;99.90;;;;;;5087926;28;20027;-81
2023/09/06 10:25:19;;;;;;;5.95;2.75;;;22.90;99.90;;;;;;5087678;28;20039;-83
2023/09/06 10:27:55;;;;;;;4.22;2.58;;;22.90;99.90;;;;;;5087087;28;20028;-81
2023/09/06 10:30:45;;;;;;;4.28;2.33;;;22.90;99.90;;;;;;5088696;28;20024;-84
2023/09/06 10:33:31;;;;;;;4.82;2.40;;;23.10;99.90;;;;;;5087562;28;20111;-83
2023/09/06 10:36:04;;;;;;;3.97;2.38;;;23.10;99.90;;;;;;5087274;28;20098;-83
2023/09/06 10:38:30;;;;;;;3.47;2.22;;;23.20;99.90;;;;;;5069982;28;20032;-83
2023/09/06 10:40:56;;;;;;;2.75;2.05;;;23.20;99.90;;;;;;5087400;28;20814;-83
2023/09/06 10:43:28;;;;;;;3.78;2.30;;;23.30;99.90;;;;;;5069439;28;20092;-80
2023/09/06 10:45:54;;;;;;;;;;;23.40;99.90;;;;;;5068703;28;20138;-84
2023/09/06 10:48:20;;;;;;;3.83;2.50;;;23.50;99.90;;;;;;5086580;28;20035;-83
2023/09/06 10:51:06;;;;;;;5.07;2.90;;;23.50;99.90;;;;;;5069933;28;20368;-81
2023/09/06 10:53:35;;;;;;;3.17;1.95;;;23.70;99.90;;;;;;5087285;28;20039;-81
2023/09/06 10:56:06;;;;;;;4.70;2.13;;;23.90;99.90;;;;;;5069245;28;21595;-83
2023/09/06 10:58:36;;;;;;;3.53;2.28;;;24.10;99.90;;;;;;5087690;28;20032;-81
2023/09/06 11:01:12;;;;;;;3.35;2.20;;;24.30;99.90;;;;;;5069219;28;20040;-82
2023/09/06 11:03:38;;;;;;;4.32;2.38;;;24.40;99.90;;;;;;5086434;28;20367;-81
2023/09/06 11:06:06;;;;;;;4.65;2.72;;;24.50;99.90;;;;;;5069785;28;20020;-83
2023/09/06 11:08:33;;;;;;;4.13;2.35;;;24.50;99.90;;;;;;5067849;28;20441;-81
2023/09/06 11:11:08;;;;;;;3.05;2.58;;;24.60;99.90;;;;;;5068347;28;20036;-79
2023/09/06 11:13:40;;;;;;;5.25;2.75;;;24.70;99.90;;;;;;5086266;28;20082;-83
2023/09/06 11:16:12;;;;;;;3.20;2.30;;;24.80;99.90;;;;;;5087141;28;20024;-83
2023/09/06 11:18:49;;;;;;;5.30;2.30;;;24.80;99.90;;;;;;5088397;28;20115;-80
2023/09/06 11:21:24;;;;;;;3.33;2.15;;;25.00;99.90;;;;;;5067277;28;20130;-81
2023/09/06 11:23:51;;;;;;;2.88;2.03;;;25.00;99.90;;;;;;5086703;28;20092;-83
2023/09/06 11:26:20;;;;;;;2.83;2.05;;;25.10;99.30;;;;;;5061543;28;20028;-83
2023/09/06 11:29:00;;;;;;;6.63;2.30;;;25.20;98.80;;;;;;5086927;28;20103;-81
2023/09/06 11:31:30;;;;;;;3.58;2.33;;;25.20;99.50;;;;;;5068076;28;20031;-82
2023/09/06 11:34:04;;;;;;;4.97;2.80;;;25.20;99.90;;;;;;5088748;28;20031;-82
2023/09/06 11:36:36;;;;;;;4.97;2.63;;;25.20;99.50;;;;;;5089056;28;20028;-81
2023/09/06 11:39:39;;;;;;;4.13;2.88;;;25.20;99.60;;;;;;5085831;28;20047;-83
2023/09/06 11:41:55;;;;;;;7.03;2.15;;;25.30;99.40;;;;;;5083339;28;20395;-80
2023/09/06 11:44:23;;;;;;;3.33;2.28;;;25.30;99.40;;;;;;5086045;28;20032;-83
2023/09/06 11:46:49;;;;;;;5.68;2.20;;;25.40;99.30;;;;;;5086416;28;20028;-82
2023/09/06 11:49:17;;;;;;;3.47;1.95;;;25.50;98.90;;;;;;5087611;28;21662;-82
2023/09/06 11:51:46;;;;;;;4.72;2.30;;;25.40;98.80;;;;;;5085605;28;20023;-81
2023/09/06 11:54:12;;;;;;;3.72;2.35;;;25.50;99.50;;;;;;5085485;28;20020;-82
2023/09/06 11:56:42;;;;;;;3.17;2.28;;;25.50;99.80;;;;;;5067088;28;20073;-82
2023/09/06 11:59:12;;;;;;;6.78;2.30;;;25.60;99.90;;;;;;5066419;28;20452;-82
2023/09/06 12:01:44;;;;;;;3.90;2.47;;;25.60;99.90;;;;;;5066821;28;20043;-80
2023/09/06 12:04:18;;;;;;;3.08;2.35;;;25.70;99.40;;;;;;5090371;28;20109;-81
2023/09/06 12:06:44;;;;;;;4.65;2.15;;;25.90;99.10;;;;;;5067725;28;20032;-80
2023/09/06 12:09:12;;;;;;;7.03;2.97;;;25.90;99.80;;;;;;5086935;28;20097;-81
2023/09/06 12:11:41;;;;;;;3.75;2.60;;;25.90;99.90;;;;;;5068970;28;20032;-81
2023/09/06 12:14:11;;;;;;;9.38;2.97;;;25.90;99.70;;;;;;5084117;28;20112;-82
2023/09/06 12:16:37;;;;;;;4.55;2.60;;;26.00;99.90;;;;;;5085765;28;20032;-81
2023/09/06 12:19:11;;;;;;;2.85;2.30;;;26.00;99.80;;;;;;5060685;28;20024;-83
2023/09/06 12:21:37;;;;;;;2.58;2.25;;;26.10;99.30;;;;;;5065765;28;20062;-82
2023/09/06 12:24:06;;;;;;;3.88;2.65;;;26.10;99.50;;;;;;5065835;28;20077;-79
2023/09/06 12:26:33;;;;;;;2.97;2.30;;;26.10;99.80;;;;;;5064317;28;20148;-83
2023/09/06 12:29:00;;;;;;;4.70;2.60;;;26.20;99.80;;;;;;5083330;28;20035;-83
2023/09/06 12:31:28;;;;;;;6.53;2.75;;;26.30;99.50;;;;;;5063924;28;20380;-81
2023/09/06 12:33:54;;;;;;;4.68;2.58;;;26.30;99.00;;;;;;5085257;28;20024;-79
2023/09/06 12:36:20;;;;;;;5.47;2.78;;;26.30;99.40;;;;;;5085439;28;20047;-79
2023/09/06 12:38:46;;;;;;;3.70;2.58;;;26.40;99.20;;;;;;5085251;28;20032;-82
2023/09/06 12:41:15;;;;;;;4.63;2.50;;;26.50;99.10;;;;;;5085428;28;20028;-81
2023/09/06 12:43:40;;;;;;;4.82;2.25;;;26.60;98.60;;;;;;5066642;28;20587;-82
2023/09/06 12:46:06;;;;;;;4.55;2.65;;;26.60;97.90;;;;;;5085703;28;20039;-82
2023/09/06 12:48:32;;;;;;;4.10;3.08;;;26.70;97.60;;;;;;5085205;28;20080;-83
2023/09/06 12:50:57;;;;;;;5.85;2.33;;;26.80;97.20;;;;;;5085409;28;20028;-78
2023/09/06 12:53:25;;;;;;;8.85;2.97;;;26.80;97.30;;;;;;5064059;28;20032;-82
2023/09/06 12:55:53;;;;;;;4.05;2.50;;;26.90;96.80;;;;;;5062015;28;20453;-83